Time;durP1;ratioP1;P1;durP2;ratioP2;P2;SDS_P1;SDS_P2;PMS_P1;PMS_P2;Temp;Humidity;BMP_temperature;BMP_pressure;BME280_temperature;BME280_humidity;BME280_pressure;Samples;Min_cycle;Max_cycle;Signal;HPM_P1;HPM_P2
2021/05/09 00:01:01;;;;;;;13.90;6.00;;;;;;;;;;4980646;28;20487;-74
2021/05/09 00:03:27;;;;;;;8.50;6.23;;;;;;;;;;4965792;28;20433;-74
2021/05/09 00:05:53;;;;;;;10.00;6.37;;;;;;;;;;4984473;28;20439;-74
2021/05/09 00:08:19;;;;;;;9.37;5.87;;;;;;;;;;4979593;28;20432;-74
2021/05/09 00:10:45;;;;;;;6.40;5.80;;;;;;;;;;4978492;28;20457;-73
2021/05/09 00:13:12;;;;;;;9.87;5.70;;;;;;;;;;4979517;28;20519;-74
2021/05/09 00:15:38;;;;;;;6.77;4.63;;;;;;;;;;4978043;28;20511;-73
2021/05/09 00:18:05;;;;;;;9.60;5.90;;;;;;;;;;4978157;28;20444;-73
2021/05/09 00:20:31;;;;;;;9.40;5.70;;;;;;;;;;4967927;28;20607;-73
2021/05/09 00:22:57;;;;;;;9.43;6.07;;;;;;;;;;4982278;28;22701;-74
2021/05/09 00:25:23;;;;;;;8.43;5.90;;;;;;;;;;4966339;28;21083;-73
2021/05/09 00:27:49;;;;;;;9.23;6.00;;;;;;;;;;4973106;28;20437;-73
2021/05/09 00:30:16;;;;;;;6.80;5.83;;;;;;;;;;4976631;28;20471;-74
2021/05/09 00:32:43;;;;;;;6.50;5.60;;;;;;;;;;4980050;28;20472;-74
2021/05/09 00:35:09;;;;;;;8.27;6.10;;;;;;;;;;4978957;28;20445;-73
2021/05/09 00:37:35;;;;;;;6.23;5.07;;;;;;;;;;4978263;28;20455;-73
2021/05/09 00:40:01;;;;;;;9.70;5.80;;;;;;;;;;4964514;28;20454;-73
2021/05/09 00:42:27;;;;;;;8.83;5.40;;;;;;;;;;4978709;28;20857;-74
2021/05/09 00:44:53;;;;;;;6.40;5.47;;;;;;;;;;4972316;28;20508;-73
2021/05/09 00:47:19;;;;;;;8.47;5.97;;;;;;;;;;4973195;28;20456;-73
2021/05/09 00:49:45;;;;;;;7.77;5.53;;;;;;;;;;4980057;28;20473;-74
2021/05/09 00:52:12;;;;;;;8.90;6.07;;;;;;;;;;4978670;28;20468;-73
2021/05/09 00:54:45;;;;;;;7.90;5.63;;;;;;;;;;4962926;28;20429;-73
2021/05/09 00:57:13;;;;;;;6.53;5.60;;;;;;;;;;4981513;28;20437;-73
2021/05/09 00:59:40;;;;;;;5.67;5.00;;;;;;;;;;4965596;28;20512;-74
2021/05/09 01:02:07;;;;;;;11.53;5.80;;;;;;;;;;4965983;28;20429;-73
2021/05/09 01:04:33;;;;;;;14.93;5.83;;;;;;;;;;4984575;28;20459;-74
2021/05/09 01:06:59;;;;;;;9.00;6.40;;;;;;;;;;4963270;28;20444;-74
2021/05/09 01:09:25;;;;;;;6.73;6.03;;;;;;;;;;4963239;28;21173;-75
2021/05/09 01:11:51;;;;;;;8.33;5.90;;;;;;;;;;4976882;28;20477;-73
2021/05/09 01:14:17;;;;;;;7.50;6.80;;;;;;;;;;4979503;28;20464;-74
2021/05/09 01:16:44;;;;;;;10.23;6.40;;;;;;;;;;4979617;28;20440;-73
2021/05/09 01:19:10;;;;;;;7.57;6.00;;;;;;;;;;4975199;28;20465;-74
2021/05/09 01:21:36;;;;;;;8.57;6.20;;;;;;;;;;4978571;28;20445;-74
2021/05/09 01:24:03;;;;;;;6.37;5.77;;;;;;;;;;4965466;28;20468;-73
2021/05/09 01:26:29;;;;;;;9.33;6.10;;;;;;;;;;4973875;28;20451;-74
2021/05/09 01:28:55;;;;;;;10.43;5.93;;;;;;;;;;4980277;28;20437;-73
2021/05/09 01:31:21;;;;;;;8.97;5.90;;;;;;;;;;4977582;28;20449;-74
2021/05/09 01:33:47;;;;;;;7.43;6.13;;;;;;;;;;4965087;28;20512;-74
2021/05/09 01:36:13;;;;;;;6.77;5.97;;;;;;;;;;4978470;28;20436;-74
2021/05/09 01:38:39;;;;;;;10.60;6.90;;;;;;;;;;4983635;28;20565;-74
2021/05/09 01:41:05;;;;;;;10.37;6.53;;;;;;;;;;4976505;28;21254;-74
2021/05/09 01:43:35;;;;;;;12.17;6.00;;;;;;;;;;4977673;28;20826;-74
2021/05/09 01:46:01;;;;;;;12.37;7.10;;;;;;;;;;4984746;28;20449;-74
2021/05/09 01:48:27;;;;;;;9.90;6.23;;;;;;;;;;4977151;28;20441;-74
2021/05/09 01:50:53;;;;;;;9.70;6.47;;;;;;;;;;4980086;28;20456;-74
2021/05/09 01:53:20;;;;;;;9.73;6.50;;;;;;;;;;4962223;28;20468;-74
2021/05/09 01:55:46;;;;;;;10.07;6.03;;;;;;;;;;4979078;28;20499;-74
2021/05/09 01:58:12;;;;;;;8.67;6.13;;;;;;;;;;4986962;28;20425;-74
2021/05/09 02:00:38;;;;;;;12.50;6.40;;;;;;;;;;4961044;28;20461;-74
2021/05/09 02:03:04;;;;;;;12.87;6.53;;;;;;;;;;4974972;28;20456;-74
2021/05/09 02:05:30;;;;;;;10.23;6.43;;;;;;;;;;4971789;28;20483;-73
2021/05/09 02:07:56;;;;;;;7.57;6.60;;;;;;;;;;4978771;28;20464;-75
2021/05/09 02:10:22;;;;;;;10.30;6.90;;;;;;;;;;4987200;28;20491;-74
2021/05/09 02:12:48;;;;;;;10.80;6.63;;;;;;;;;;4978802;28;20472;-74
2021/05/09 02:15:14;;;;;;;10.33;7.20;;;;;;;;;;4970311;28;20492;-74
2021/05/09 02:17:42;;;;;;;9.23;7.50;;;;;;;;;;4985306;28;20819;-74
2021/05/09 02:20:09;;;;;;;9.30;6.90;;;;;;;;;;4982519;28;20503;-74
2021/05/09 02:22:35;;;;;;;8.53;7.27;;;;;;;;;;4984413;28;20479;-74
2021/05/09 02:25:01;;;;;;;10.47;6.87;;;;;;;;;;4968611;28;20442;-74
2021/05/09 02:27:27;;;;;;;11.90;7.03;;;;;;;;;;4980907;28;20429;-74
2021/05/09 02:29:53;;;;;;;7.90;7.10;;;;;;;;;;4979584;28;21239;-74
2021/05/09 02:32:19;;;;;;;8.10;6.70;;;;;;;;;;4983625;28;20476;-74
2021/05/09 02:34:45;;;;;;;10.53;6.40;;;;;;;;;;4984843;28;20447;-74
2021/05/09 02:37:11;;;;;;;8.70;6.87;;;;;;;;;;4980097;28;20437;-75
2021/05/09 02:39:37;;;;;;;6.73;6.00;;;;;;;;;;4974672;28;20461;-75
2021/05/09 02:42:03;;;;;;;8.90;5.70;;;;;;;;;;4977972;28;20448;-75
2021/05/09 02:44:29;;;;;;;8.53;6.27;;;;;;;;;;4962231;28;21214;-73
2021/05/09 02:46:55;;;;;;;11.43;5.97;;;;;;;;;;4979434;28;20465;-75
2021/05/09 02:49:22;;;;;;;10.93;5.37;;;;;;;;;;4980412;28;20535;-74
2021/05/09 02:51:48;;;;;;;8.90;6.17;;;;;;;;;;4976960;28;20528;-75
2021/05/09 02:54:14;;;;;;;8.10;5.77;;;;;;;;;;4968018;28;20437;-74
2021/05/09 02:56:40;;;;;;;12.30;6.00;;;;;;;;;;4989758;28;20437;-74
2021/05/09 02:59:06;;;;;;;8.83;6.37;;;;;;;;;;4966670;28;20860;-74
2021/05/09 03:01:32;;;;;;;7.80;5.23;;;;;;;;;;4978637;28;20439;-74
2021/05/09 03:04:00;;;;;;;7.97;5.63;;;;;;;;;;4984231;28;20507;-75
2021/05/09 03:06:26;;;;;;;7.73;5.57;;;;;;;;;;4975265;28;20449;-74
2021/05/09 03:08:52;;;;;;;7.80;6.07;;;;;;;;;;4979734;28;20496;-73
2021/05/09 03:11:20;;;;;;;10.63;5.47;;;;;;;;;;4978374;28;20438;-73
2021/05/09 03:13:46;;;;;;;8.13;5.50;;;;;;;;;;4970409;28;20882;-74
2021/05/09 03:16:12;;;;;;;17.50;6.10;;;;;;;;;;4985805;28;20469;-73
2021/05/09 03:18:38;;;;;;;8.63;6.30;;;;;;;;;;4981246;28;21048;-74
2021/05/09 03:21:04;;;;;;;10.47;6.10;;;;;;;;;;4969226;28;20462;-76
2021/05/09 03:23:30;;;;;;;14.93;6.30;;;;;;;;;;4979244;28;21268;-74
2021/05/09 03:25:56;;;;;;;8.20;6.93;;;;;;;;;;4979015;28;20524;-74
2021/05/09 03:28:22;;;;;;;9.93;5.90;;;;;;;;;;4963838;28;20520;-73
2021/05/09 03:30:48;;;;;;;8.70;5.97;;;;;;;;;;4974688;28;20569;-74
2021/05/09 03:33:14;;;;;;;6.60;5.67;;;;;;;;;;4975670;28;20468;-74
2021/05/09 03:35:40;;;;;;;10.57;6.57;;;;;;;;;;4979381;28;20552;-74
2021/05/09 03:38:07;;;;;;;10.20;6.20;;;;;;;;;;4967832;28;20436;-74
2021/05/09 03:40:33;;;;;;;7.83;5.57;;;;;;;;;;4963869;28;20461;-74
2021/05/09 03:42:59;;;;;;;13.77;6.50;;;;;;;;;;4984505;28;21105;-74
2021/05/09 03:45:25;;;;;;;11.63;6.67;;;;;;;;;;4986410;28;20845;-74
2021/05/09 03:47:51;;;;;;;6.83;6.07;;;;;;;;;;4981239;28;20441;-74
2021/05/09 03:50:17;;;;;;;9.43;6.13;;;;;;;;;;4978880;28;20904;-73
2021/05/09 03:52:43;;;;;;;10.73;6.10;;;;;;;;;;4978922;28;20474;-74
2021/05/09 03:55:09;;;;;;;9.17;6.20;;;;;;;;;;4959983;28;20794;-73
2021/05/09 03:57:36;;;;;;;9.13;6.47;;;;;;;;;;4971161;28;20437;-74
2021/05/09 04:00:02;;;;;;;7.13;6.10;;;;;;;;;;4966663;28;20453;-74
2021/05/09 04:02:28;;;;;;;9.77;6.27;;;;;;;;;;4962146;28;21157;-74
2021/05/09 04:04:54;;;;;;;7.50;5.90;;;;;;;;;;4967645;28;20981;-74
2021/05/09 04:07:20;;;;;;;8.17;5.87;;;;;;;;;;4980956;28;20445;-73
2021/05/09 04:09:46;;;;;;;6.93;5.90;;;;;;;;;;4964126;28;20466;-74
2021/05/09 04:12:12;;;;;;;10.30;6.47;;;;;;;;;;4981836;28;20522;-74
2021/05/09 04:14:38;;;;;;;8.23;5.73;;;;;;;;;;4985233;28;20432;-73
2021/05/09 04:17:04;;;;;;;6.77;5.30;;;;;;;;;;4977988;28;20429;-75
2021/05/09 04:19:30;;;;;;;8.47;6.17;;;;;;;;;;4985696;28;20465;-74
2021/05/09 04:21:56;;;;;;;9.90;6.50;;;;;;;;;;4972643;28;20437;-74
2021/05/09 04:24:22;;;;;;;9.13;6.33;;;;;;;;;;4981123;28;20468;-74
2021/05/09 04:26:48;;;;;;;6.73;6.03;;;;;;;;;;4966326;28;20532;-74
2021/05/09 04:29:14;;;;;;;12.13;5.97;;;;;;;;;;4968308;28;20471;-74
2021/05/09 04:31:41;;;;;;;10.30;6.07;;;;;;;;;;4982818;28;20465;-74
2021/05/09 04:34:07;;;;;;;9.30;6.00;;;;;;;;;;4973228;28;20894;-73
2021/05/09 04:36:33;;;;;;;13.40;5.87;;;;;;;;;;4990054;28;20440;-73
2021/05/09 04:38:59;;;;;;;7.30;5.80;;;;;;;;;;4993022;28;20429;-73
2021/05/09 04:41:25;;;;;;;7.17;5.30;;;;;;;;;;4962693;28;20943;-74
2021/05/09 04:43:51;;;;;;;7.73;5.73;;;;;;;;;;4986922;28;20425;-73
2021/05/09 04:46:17;;;;;;;8.03;4.97;;;;;;;;;;4981480;28;20516;-74
2021/05/09 04:48:43;;;;;;;9.97;5.73;;;;;;;;;;4971696;28;20434;-73
2021/05/09 04:51:09;;;;;;;8.73;5.30;;;;;;;;;;4969331;28;21311;-74
2021/05/09 04:53:36;;;;;;;7.60;5.80;;;;;;;;;;4966831;28;20473;-73
2021/05/09 04:56:03;;;;;;;8.10;5.83;;;;;;;;;;4982766;28;20441;-74
2021/05/09 04:58:30;;;;;;;7.07;5.50;;;;;;;;;;4982547;28;20448;-74
2021/05/09 05:01:01;;;;;;;9.90;5.53;;;;;;;;;;4967492;28;20865;-74
2021/05/09 05:03:27;;;;;;;7.43;6.53;;;;;;;;;;4968754;28;20441;-74
2021/05/09 05:05:53;;;;;;;9.63;6.10;;;;;;;;;;4967739;28;21038;-73
2021/05/09 05:08:19;;;;;;;8.07;5.83;;;;;;;;;;4970751;28;20437;-73
2021/05/09 05:10:45;;;;;;;8.43;5.57;;;;;;;;;;4982950;28;20464;-74
2021/05/09 05:13:18;;;;;;;11.77;5.53;;;;;;;;;;4988319;28;20479;-73
2021/05/09 05:15:44;;;;;;;10.63;6.43;;;;;;;;;;4982703;28;20491;-73
2021/05/09 05:18:10;;;;;;;9.27;6.10;;;;;;;;;;4966669;28;20787;-74
2021/05/09 05:20:36;;;;;;;7.57;5.43;;;;;;;;;;4956207;28;20437;-74
2021/05/09 05:23:03;;;;;;;9.87;5.13;;;;;;;;;;4989924;28;20519;-73
2021/05/09 05:25:29;;;;;;;9.63;5.47;;;;;;;;;;4985883;28;20429;-74
2021/05/09 05:27:55;;;;;;;16.87;5.90;;;;;;;;;;4976272;28;20421;-73
2021/05/09 05:30:21;;;;;;;8.50;5.73;;;;;;;;;;4991629;28;20444;-74
2021/05/09 05:32:48;;;;;;;12.70;5.27;;;;;;;;;;4976874;28;20460;-75
2021/05/09 05:35:14;;;;;;;8.23;5.20;;;;;;;;;;4973946;28;20444;-74
2021/05/09 05:37:43;;;;;;;8.13;5.30;;;;;;;;;;4987015;28;20461;-74
2021/05/09 05:40:09;;;;;;;7.80;5.23;;;;;;;;;;4976748;28;20458;-74
2021/05/09 05:42:35;;;;;;;16.47;6.33;;;;;;;;;;4987265;28;20429;-74
2021/05/09 05:45:01;;;;;;;10.73;5.20;;;;;;;;;;4973064;28;20457;-72
2021/05/09 05:47:27;;;;;;;7.47;5.00;;;;;;;;;;4975500;28;20506;-74
2021/05/09 05:49:55;;;;;;;8.10;4.90;;;;;;;;;;4985499;28;20963;-73
2021/05/09 05:52:21;;;;;;;9.97;5.30;;;;;;;;;;4989399;28;20515;-74
2021/05/09 05:54:47;;;;;;;18.43;5.90;;;;;;;;;;4990303;28;20527;-74
2021/05/09 05:57:13;;;;;;;8.53;5.20;;;;;;;;;;4979156;28;20437;-74
2021/05/09 05:59:39;;;;;;;7.97;5.53;;;;;;;;;;4964686;28;20449;-74
2021/05/09 06:02:05;;;;;;;9.40;5.40;;;;;;;;;;4980400;28;20484;-73
2021/05/09 06:04:31;;;;;;;8.33;5.50;;;;;;;;;;4996255;28;20476;-74
2021/05/09 06:06:57;;;;;;;7.00;5.33;;;;;;;;;;4988196;28;20955;-73
2021/05/09 06:09:23;;;;;;;9.03;4.27;;;;;;;;;;4979953;28;20461;-73
2021/05/09 06:11:49;;;;;;;9.90;4.93;;;;;;;;;;4983050;28;20464;-74
2021/05/09 06:14:15;;;;;;;8.00;4.67;;;;;;;;;;4986876;28;20547;-74
2021/05/09 06:16:41;;;;;;;6.30;4.10;;;;;;;;;;4983836;28;20468;-74
2021/05/09 06:19:07;;;;;;;7.40;4.27;;;;;;;;;;4985829;28;20456;-74
2021/05/09 06:21:33;;;;;;;7.60;4.73;;;;;;;;;;4973255;28;20424;-73
2021/05/09 06:24:00;;;;;;;7.40;4.73;;;;;;;;;;4986817;28;20879;-74
2021/05/09 06:26:26;;;;;;;15.13;4.60;;;;;;;;;;4984955;28;20441;-75
2021/05/09 06:28:53;;;;;;;7.07;4.67;;;;;;;;;;4973016;28;20429;-75
2021/05/09 06:31:19;;;;;;;12.00;4.53;;;;;;;;;;4979943;28;20434;-75
2021/05/09 06:33:45;;;;;;;9.63;4.77;;;;;;;;;;4975597;28;20440;-74
2021/05/09 06:36:11;;;;;;;9.63;5.03;;;;;;;;;;4974455;28;20473;-74
2021/05/09 06:38:39;;;;;;;17.70;5.17;;;;;;;;;;4992745;28;20451;-74
2021/05/09 06:41:05;;;;;;;12.40;4.40;;;;;;;;;;4975653;28;20575;-74
2021/05/09 06:43:31;;;;;;;7.17;3.90;;;;;;;;;;4987368;28;20433;-75
2021/05/09 06:45:57;;;;;;;5.23;4.30;;;;;;;;;;4996252;28;20448;-74
2021/05/09 06:48:24;;;;;;;10.07;4.53;;;;;;;;;;4996005;28;20433;-74
2021/05/09 06:50:50;;;;;;;8.03;4.83;;;;;;;;;;4969052;28;20465;-75
2021/05/09 06:53:16;;;;;;;11.43;4.67;;;;;;;;;;4979564;28;20467;-74
2021/05/09 06:55:44;;;;;;;10.20;4.57;;;;;;;;;;4988582;28;21265;-75
2021/05/09 06:58:11;;;;;;;13.70;4.70;;;;;;;;;;4998329;28;20519;-74
2021/05/09 07:00:37;;;;;;;7.27;5.00;;;;;;;;;;4983039;28;20814;-75
2021/05/09 07:03:04;;;;;;;12.50;4.30;;;;;;;;;;4976677;28;22030;-74
2021/05/09 07:05:33;;;;;;;4.90;3.87;;;;;;;;;;4992126;28;20605;-74
2021/05/09 07:07:59;;;;;;;8.07;4.20;;;;;;;;;;4989803;28;21066;-75
2021/05/09 07:10:26;;;;;;;8.53;4.23;;;;;;;;;;4982156;28;20456;-75
2021/05/09 07:12:53;;;;;;;4.70;3.80;;;;;;;;;;4980685;28;20842;-74
2021/05/09 07:15:26;;;;;;;9.23;4.13;;;;;;;;;;4980462;28;20440;-73
2021/05/09 07:18:08;;;;;;;5.20;4.03;;;;;;;;;;4975644;28;20523;-74
2021/05/09 07:20:37;;;;;;;5.70;4.13;;;;;;;;;;4976975;28;20487;-74
2021/05/09 07:23:04;;;;;;;5.10;4.60;;;;;;;;;;4972006;28;20454;-73
2021/05/09 07:25:30;;;;;;;6.30;3.90;;;;;;;;;;4984740;28;20440;-73
2021/05/09 07:28:09;;;;;;;9.40;5.43;;;;;;;;;;4991995;28;20435;-73
2021/05/09 07:30:36;;;;;;;10.90;5.47;;;;;;;;;;4978132;28;20547;-73
2021/05/09 07:33:02;;;;;;;5.13;3.87;;;;;;;;;;4975655;28;20465;-72
2021/05/09 07:35:28;;;;;;;7.17;4.70;;;;;;;;;;4962994;28;20503;-74
2021/05/09 07:37:54;;;;;;;4.60;3.90;;;;;;;;;;4982997;28;20471;-73
2021/05/09 07:40:21;;;;;;;5.50;3.60;;;;;;;;;;4974997;28;20938;-74
2021/05/09 07:42:47;;;;;;;4.70;3.77;;;;;;;;;;4972965;28;20974;-74
2021/05/09 07:45:22;;;;;;;6.33;4.00;;;;;;;;;;4982434;28;20465;-74
2021/05/09 07:47:48;;;;;;;8.27;4.10;;;;;;;;;;4978574;28;20431;-73
2021/05/09 07:50:15;;;;;;;7.97;3.87;;;;;;;;;;4968711;28;20483;-74
2021/05/09 07:52:44;;;;;;;9.23;4.30;;;;;;;;;;4964565;28;20531;-73
2021/05/09 07:55:11;;;;;;;5.00;3.87;;;;;;;;;;4959427;28;20480;-73
2021/05/09 07:57:37;;;;;;;3.80;3.50;;;;;;;;;;4983165;28;20444;-74
2021/05/09 08:00:15;;;;;;;5.93;3.67;;;;;;;;;;4986346;28;20461;-73
2021/05/09 08:02:41;;;;;;;4.10;3.63;;;;;;;;;;4986770;28;20441;-73
2021/05/09 08:05:07;;;;;;;7.63;4.00;;;;;;;;;;4973696;28;20426;-73
2021/05/09 08:07:33;;;;;;;4.80;3.73;;;;;;;;;;4964499;28;20823;-73
2021/05/09 08:09:59;;;;;;;6.27;3.80;;;;;;;;;;4959552;28;20721;-73
2021/05/09 08:12:25;;;;;;;3.97;3.40;;;;;;;;;;4972258;28;20465;-73
2021/05/09 08:14:51;;;;;;;4.40;3.53;;;;;;;;;;4960139;28;20441;-73
2021/05/09 08:17:17;;;;;;;5.70;3.90;;;;;;;;;;4953772;28;20945;-73
2021/05/09 08:19:43;;;;;;;8.50;3.97;;;;;;;;;;4971135;28;20494;-73
2021/05/09 08:22:10;;;;;;;5.30;3.80;;;;;;;;;;4977643;28;20440;-72
2021/05/09 08:24:36;;;;;;;7.20;3.27;;;;;;;;;;4977916;28;20433;-72
2021/05/09 08:27:02;;;;;;;5.07;3.90;;;;;;;;;;4978747;28;20445;-72
2021/05/09 08:29:28;;;;;;;6.67;3.83;;;;;;;;;;4976782;28;20561;-72
2021/05/09 08:31:54;;;;;;;4.30;3.40;;;;;;;;;;4983921;28;20944;-75
2021/05/09 08:34:20;;;;;;;6.40;3.87;;;;;;;;;;4973519;28;20880;-75
2021/05/09 08:36:46;;;;;;;8.17;4.00;;;;;;;;;;4980604;28;20469;-76
2021/05/09 08:39:12;;;;;;;7.10;3.80;;;;;;;;;;4965303;28;20434;-76
2021/05/09 08:41:42;;;;;;;5.67;4.03;;;;;;;;;;4964981;28;20438;-76
2021/05/09 08:44:09;;;;;;;6.00;3.80;;;;;;;;;;4975810;28;20429;-76
2021/05/09 08:46:35;;;;;;;6.50;3.37;;;;;;;;;;4990173;28;20492;-75
2021/05/09 08:49:02;;;;;;;5.53;3.30;;;;;;;;;;4973350;28;20424;-76
2021/05/09 08:51:28;;;;;;;5.57;3.23;;;;;;;;;;4973591;28;20421;-76
2021/05/09 08:53:55;;;;;;;7.87;3.47;;;;;;;;;;4985820;28;20425;-75
2021/05/09 08:56:22;;;;;;;4.07;3.60;;;;;;;;;;4989473;28;20425;-75
2021/05/09 08:58:48;;;;;;;3.83;3.10;;;;;;;;;;4988980;28;20840;-75
2021/05/09 09:01:14;;;;;;;5.17;3.20;;;;;;;;;;4973124;28;20456;-76
2021/05/09 09:03:40;;;;;;;9.03;3.67;;;;;;;;;;4991025;28;20549;-76
2021/05/09 09:06:15;;;;;;;3.33;3.03;;;;;;;;;;4977523;28;21341;-76
2021/05/09 09:08:50;;;;;;;4.13;2.80;;;;;;;;;;4972337;28;20520;-76
2021/05/09 09:11:26;;;;;;;3.73;3.03;;;;;;;;;;4981954;28;20489;-76
2021/05/09 09:14:09;;;;;;;5.27;2.40;;;;;;;;;;4963712;28;20461;-76
2021/05/09 09:16:36;;;;;;;3.87;3.00;;;;;;;;;;4970771;28;20425;-76
2021/05/09 09:19:13;;;;;;;5.53;2.90;;;;;;;;;;4958705;28;20429;-77
2021/05/09 09:21:39;;;;;;;4.07;2.90;;;;;;;;;;4973755;28;20515;-76
2021/05/09 09:24:12;;;;;;;6.03;2.73;;;;;;;;;;4961325;28;20506;-76
2021/05/09 09:26:40;;;;;;;7.23;2.90;;;;;;;;;;4983881;28;20956;-76
2021/05/09 09:29:20;;;;;;;7.23;2.60;;;;;;;;;;4984367;28;20825;-76
2021/05/09 09:31:46;;;;;;;4.80;2.00;;;;;;;;;;4972373;28;20460;-76
2021/05/09 09:34:13;;;;;;;5.23;1.90;;;;;;;;;;4972261;28;20424;-75
2021/05/09 09:36:39;;;;;;;2.70;1.60;;;;;;;;;;4988750;28;20413;-74
2021/05/09 09:39:06;;;;;;;4.43;2.57;;;;;;;;;;4990419;28;20804;-76
2021/05/09 09:41:32;;;;;;;3.00;2.17;;;;;;;;;;4969285;28;20433;-76
2021/05/09 09:44:08;;;;;;;2.83;2.13;;;;;;;;;;4964523;28;20434;-77
2021/05/09 09:46:38;;;;;;;3.43;1.90;;;;;;;;;;4967409;28;20507;-77
2021/05/09 09:49:18;;;;;;;4.57;1.97;;;;;;;;;;4977255;28;20429;-77
2021/05/09 09:52:00;;;;;;;3.90;2.43;;;;;;;;;;4976618;28;20437;-77
2021/05/09 09:54:33;;;;;;;2.50;2.30;;;;;;;;;;4964386;28;20785;-76
2021/05/09 09:57:00;;;;;;;5.30;2.40;;;;;;;;;;4963741;28;20450;-76
2021/05/09 09:59:26;;;;;;;9.03;2.13;;;;;;;;;;4968647;28;20476;-77
2021/05/09 10:01:53;;;;;;;6.80;2.07;;;;;;;;;;4987704;28;20966;-76
2021/05/09 10:04:19;;;;;;;3.27;1.67;;;;;;;;;;4984816;28;20433;-76
2021/05/09 10:06:45;;;;;;;6.63;2.60;;;;;;;;;;4981504;28;20436;-77
2021/05/09 10:09:11;;;;;;;3.40;2.10;;;;;;;;;;4980476;28;20487;-76
2021/05/09 10:11:37;;;;;;;5.40;2.10;;;;;;;;;;4966139;28;20490;-76
2021/05/09 10:14:04;;;;;;;2.83;1.53;;;;;;;;;;4984167;28;20433;-75
2021/05/09 10:16:34;;;;;;;4.20;2.43;;;;;;;;;;4981614;28;21166;-77
2021/05/09 10:19:01;;;;;;;3.03;2.37;;;;;;;;;;4966873;28;20520;-77
2021/05/09 10:21:36;;;;;;;2.50;2.30;;;;;;;;;;4981578;28;20443;-77
2021/05/09 10:24:19;;;;;;;5.40;2.30;;;;;;;;;;4979326;28;20934;-76
2021/05/09 10:26:52;;;;;;;6.20;2.33;;;;;;;;;;4983761;28;20496;-76
2021/05/09 10:29:43;;;;;;;8.63;3.37;;;;;;;;;;4972262;28;20512;-76
2021/05/09 10:32:21;;;;;;;7.20;3.30;;;;;;;;;;4977188;28;20472;-75
2021/05/09 10:34:50;;;;;;;7.27;3.40;;;;;;;;;;4987360;28;20472;-75
2021/05/09 10:37:40;;;;;;;4.27;2.50;;;;;;;;;;4982293;28;20488;-76
2021/05/09 10:40:27;;;;;;;5.60;2.90;;;;;;;;;;4980658;28;20501;-78
2021/05/09 10:43:03;;;;;;;3.63;3.17;;;;;;;;;;4973369;28;20498;-76
2021/05/09 10:45:29;;;;;;;3.27;3.00;;;;;;;;;;4981695;28;20445;-76
2021/05/09 10:48:21;;;;;;;5.73;3.10;;;;;;;;;;4979190;28;20444;-75
2021/05/09 10:50:47;;;;;;;3.77;2.97;;;;;;;;;;4976103;28;20491;-76
2021/05/09 10:53:43;;;;;;;6.57;3.07;;;;;;;;;;4982773;28;20540;-76
2021/05/09 10:56:29;;;;;;;3.90;3.00;;;;;;;;;;4961981;28;20529;-76
2021/05/09 10:58:56;;;;;;;10.03;3.90;;;;;;;;;;4993108;28;20485;-77
2021/05/09 11:01:29;;;;;;;4.53;3.63;;;;;;;;;;4987593;28;20430;-77
2021/05/09 11:03:55;;;;;;;3.93;2.70;;;;;;;;;;4990224;28;20424;-76
2021/05/09 11:06:21;;;;;;;3.87;3.03;;;;;;;;;;4984521;28;20571;-77
2021/05/09 11:08:53;;;;;;;4.23;2.90;;;;;;;;;;4995292;28;20997;-77
2021/05/09 11:11:20;;;;;;;7.33;3.10;;;;;;;;;;5005436;28;20971;-77
2021/05/09 11:14:09;;;;;;;4.90;2.90;;;;;;;;;;4970747;28;20457;-78
2021/05/09 11:16:35;;;;;;;3.47;2.60;;;;;;;;;;4988210;28;20432;-76
2021/05/09 11:19:18;;;;;;;4.17;2.50;;;;;;;;;;4979550;28;20432;-77
2021/05/09 11:21:47;;;;;;;4.13;2.80;;;;;;;;;;4983010;28;20429;-77
2021/05/09 11:24:20;;;;;;;2.17;2.00;;;;;;;;;;4969758;28;20435;-77
2021/05/09 11:26:47;;;;;;;2.87;1.93;;;;;;;;;;4980320;28;20459;-76
2021/05/09 11:29:14;;;;;;;2.10;1.30;;;;;;;;;;4968090;28;20429;-75
2021/05/09 11:31:41;;;;;;;4.53;1.70;;;;;;;;;;4976496;28;20434;-76
2021/05/09 11:34:07;;;;;;;1.83;1.40;;;;;;;;;;4989426;28;20824;-76
2021/05/09 11:36:34;;;;;;;4.13;2.03;;;;;;;;;;4973030;28;20429;-77
2021/05/09 11:39:06;;;;;;;3.13;1.70;;;;;;;;;;4984256;28;20436;-76
2021/05/09 11:41:32;;;;;;;1.60;1.30;;;;;;;;;;4970177;28;20434;-75
2021/05/09 11:44:01;;;;;;;2.50;1.60;;;;;;;;;;4988504;28;20819;-76
2021/05/09 11:46:34;;;;;;;3.00;1.70;;;;;;;;;;4971662;28;20445;-76
2021/05/09 11:49:17;;;;;;;1.87;1.70;;;;;;;;;;4965492;28;20432;-76
2021/05/09 11:51:53;;;;;;;2.77;1.60;;;;;;;;;;4991407;28;20416;-76
2021/05/09 11:54:19;;;;;;;1.97;1.80;;;;;;;;;;4975065;28;20815;-76
2021/05/09 11:56:51;;;;;;;4.63;2.10;;;;;;;;;;4992617;28;20425;-76
2021/05/09 11:59:35;;;;;;;3.97;1.40;;;;;;;;;;4991897;28;20646;-77
2021/05/09 12:02:07;;;;;;;2.30;1.70;;;;;;;;;;4977442;28;20433;-74
2021/05/09 12:04:33;;;;;;;1.90;1.57;;;;;;;;;;4961460;28;20485;-75
2021/05/09 12:07:00;;;;;;;2.60;1.80;;;;;;;;;;4968689;28;20426;-76
2021/05/09 12:09:26;;;;;;;1.77;1.60;;;;;;;;;;4955257;28;20449;-75
2021/05/09 12:11:53;;;;;;;1.60;1.50;;;;;;;;;;4976830;28;20828;-76
2021/05/09 12:14:19;;;;;;;3.90;1.50;;;;;;;;;;4958537;28;20983;-76
2021/05/09 12:16:46;;;;;;;2.40;1.60;;;;;;;;;;4973510;28;20458;-75
2021/05/09 12:19:13;;;;;;;1.67;1.57;;;;;;;;;;4976595;28;20939;-76
2021/05/09 12:21:39;;;;;;;3.77;1.93;;;;;;;;;;4971835;28;20445;-76
2021/05/09 12:24:06;;;;;;;6.03;2.00;;;;;;;;;;4981747;28;20433;-76
2021/05/09 12:26:33;;;;;;;2.33;1.60;;;;;;;;;;4958402;28;20481;-76
2021/05/09 12:29:18;;;;;;;5.10;1.80;;;;;;;;;;4954050;28;20440;-75
2021/05/09 12:31:44;;;;;;;4.20;2.17;;;;;;;;;;4972905;28;20784;-77
2021/05/09 12:34:10;;;;;;;5.30;1.50;;;;;;;;;;4984693;28;20489;-75
2021/05/09 12:36:38;;;;;;;2.43;1.50;;;;;;;;;;4986460;28;20518;-75
2021/05/09 12:39:18;;;;;;;4.40;1.57;;;;;;;;;;4977862;28;20424;-74
2021/05/09 12:41:53;;;;;;;2.30;1.77;;;;;;;;;;4976124;28;20439;-75
2021/05/09 12:44:22;;;;;;;3.80;1.67;;;;;;;;;;4981383;28;20532;-75
2021/05/09 12:46:48;;;;;;;4.30;1.40;;;;;;;;;;4972714;28;21042;-78
2021/05/09 12:49:32;;;;;;;1.50;1.37;;;;;;;;;;4991710;28;20406;-75
2021/05/09 12:52:06;;;;;;;2.90;1.50;;;;;;;;;;4988290;28;20483;-75
2021/05/09 12:54:34;;;;;;;8.00;1.40;;;;;;;;;;4992241;28;20405;-76
2021/05/09 12:57:20;;;;;;;2.60;1.30;;;;;;;;;;4992464;28;20504;-76
2021/05/09 12:59:48;;;;;;;2.47;1.13;;;;;;;;;;4991961;28;20421;-76
2021/05/09 13:02:14;;;;;;;1.90;0.97;;;;;;;;;;4991037;28;20421;-76
2021/05/09 13:04:46;;;;;;;3.20;1.67;;;;;;;;;;4990341;28;20985;-75
2021/05/09 13:07:17;;;;;;;4.10;1.20;;;;;;;;;;4992384;28;20965;-76
2021/05/09 13:09:44;;;;;;;2.20;1.30;;;;;;;;;;5011249;28;20534;-76
2021/05/09 13:12:10;;;;;;;2.33;1.20;;;;;;;;;;5011731;28;20835;-75
2021/05/09 13:14:55;;;;;;;3.07;1.10;;;;;;;;;;5011534;28;20408;-76
2021/05/09 13:17:22;;;;;;;4.40;1.30;;;;;;;;;;4955269;28;20410;-75
2021/05/09 13:19:48;;;;;;;1.80;1.13;;;;;;;;;;4974612;28;20445;-77
2021/05/09 13:22:15;;;;;;;2.23;1.60;;;;;;;;;;4992215;28;20417;-76
2021/05/09 13:24:45;;;;;;;1.93;1.17;;;;;;;;;;4997234;28;20413;-76
2021/05/09 13:27:11;;;;;;;1.43;1.17;;;;;;;;;;4996186;28;20448;-76
2021/05/09 13:29:37;;;;;;;3.77;1.20;;;;;;;;;;4990446;28;20931;-77
2021/05/09 13:32:04;;;;;;;2.50;1.10;;;;;;;;;;4982207;28;20879;-77
2021/05/09 13:34:30;;;;;;;2.70;1.30;;;;;;;;;;4977144;28;20421;-76
2021/05/09 13:36:57;;;;;;;2.10;1.20;;;;;;;;;;4973126;28;20460;-77
2021/05/09 13:39:23;;;;;;;2.10;1.40;;;;;;;;;;4987728;28;20528;-76
2021/05/09 13:41:49;;;;;;;3.20;1.90;;;;;;;;;;4994845;28;20984;-76
2021/05/09 13:44:15;;;;;;;3.10;1.40;;;;;;;;;;4990905;28;20451;-77
2021/05/09 13:46:41;;;;;;;1.93;1.43;;;;;;;;;;4992368;28;20770;-77
2021/05/09 13:49:07;;;;;;;3.23;1.60;;;;;;;;;;4990190;28;20417;-76
2021/05/09 13:51:33;;;;;;;4.00;1.50;;;;;;;;;;4995042;28;20989;-76
2021/05/09 13:53:59;;;;;;;2.20;1.53;;;;;;;;;;4992603;28;20607;-76
2021/05/09 13:56:26;;;;;;;1.80;1.17;;;;;;;;;;4975498;28;20418;-77
2021/05/09 13:58:52;;;;;;;1.63;1.20;;;;;;;;;;4986213;28;20412;-76
2021/05/09 14:01:19;;;;;;;1.87;1.77;;;;;;;;;;4995578;28;20429;-77
2021/05/09 14:03:45;;;;;;;3.83;1.70;;;;;;;;;;4995577;28;20508;-76
2021/05/09 14:06:12;;;;;;;1.43;1.33;;;;;;;;;;4978618;28;20436;-76
2021/05/09 14:08:38;;;;;;;1.83;1.73;;;;;;;;;;4977811;28;20416;-76
2021/05/09 14:11:04;;;;;;;4.23;2.03;;;;;;;;;;4995674;28;20444;-76
2021/05/09 14:13:31;;;;;;;3.03;1.77;;;;;;;;;;4977949;28;20472;-76
2021/05/09 14:15:57;;;;;;;2.40;1.57;;;;;;;;;;4991740;28;20416;-76
2021/05/09 14:18:23;;;;;;;3.17;2.30;;;;;;;;;;4997728;28;20811;-76
2021/05/09 14:20:49;;;;;;;2.80;1.90;;;;;;;;;;5000715;28;20432;-76
2021/05/09 14:23:15;;;;;;;2.67;2.03;;;;;;;;;;4978612;28;20423;-76
2021/05/09 14:25:41;;;;;;;3.87;2.50;;;;;;;;;;4977452;28;20843;-77
2021/05/09 14:28:07;;;;;;;9.27;2.57;;;;;;;;;;4994425;28;20424;-76
2021/05/09 14:30:33;;;;;;;2.87;2.20;;;;;;;;;;4995261;28;20532;-76
2021/05/09 14:32:59;;;;;;;4.77;2.40;;;;;;;;;;4998619;28;20543;-76
2021/05/09 14:35:26;;;;;;;7.07;2.60;;;;;;;;;;5015550;28;20404;-76
2021/05/09 14:37:54;;;;;;;9.40;2.30;;;;;;;;;;4997562;28;20424;-76
2021/05/09 14:40:20;;;;;;;2.67;2.40;;;;;;;;;;4977409;28;20462;-76
2021/05/09 14:42:46;;;;;;;4.07;2.37;;;;;;;;;;4974168;28;20426;-76
2021/05/09 14:45:12;;;;;;;3.67;2.60;;;;;;;;;;4974435;28;20496;-77